sensor_id;sensor_type;location;lat;lon;timestamp;P1;durP1;ratioP1;P2;durP2;ratioP2
63342;SDS011;49465;57.664;39.686;2023-04-24T00:02:09;8.75;;;3.53;;
63342;SDS011;49465;57.664;39.686;2023-04-24T00:04:43;13.23;;;3.80;;
63342;SDS011;49465;57.664;39.686;2023-04-24T00:07:19;16.08;;;3.53;;
63342;SDS011;49465;57.664;39.686;2023-04-24T00:09:51;14.25;;;4.22;;
63342;SDS011;49465;57.664;39.686;2023-04-24T00:12:23;14.23;;;3.70;;
63342;SDS011;49465;57.664;39.686;2023-04-24T00:14:53;11.23;;;4.00;;
63342;SDS011;49465;57.664;39.686;2023-04-24T00:17:25;11.57;;;3.97;;
63342;SDS011;49465;57.664;39.686;2023-04-24T00:19:59;9.20;;;3.95;;
63342;SDS011;49465;57.664;39.686;2023-04-24T00:22:29;10.57;;;3.90;;
63342;SDS011;49465;57.664;39.686;2023-04-24T00:25:10;11.82;;;3.65;;
63342;SDS011;49465;57.664;39.686;2023-04-24T00:27:40;9.13;;;3.72;;
63342;SDS011;49465;57.664;39.686;2023-04-24T00:30:06;10.32;;;3.97;;
63342;SDS011;49465;57.664;39.686;2023-04-24T00:32:41;10.73;;;3.88;;
63342;SDS011;49465;57.664;39.686;2023-04-24T00:35:11;12.35;;;4.38;;
63342;SDS011;49465;57.664;39.686;2023-04-24T00:37:37;8.65;;;3.90;;
63342;SDS011;49465;57.664;39.686;2023-04-24T00:40:07;11.45;;;4.28;;
63342;SDS011;49465;57.664;39.686;2023-04-24T00:42:34;15.77;;;4.13;;
63342;SDS011;49465;57.664;39.686;2023-04-24T00:45:03;16.40;;;4.45;;
63342;SDS011;49465;57.664;39.686;2023-04-24T00:47:40;10.20;;;4.00;;
63342;SDS011;49465;57.664;39.686;2023-04-24T00:50:16;11.30;;;4.20;;
63342;SDS011;49465;57.664;39.686;2023-04-24T00:52:51;11.57;;;4.25;;
63342;SDS011;49465;57.664;39.686;2023-04-24T00:55:17;11.88;;;4.07;;
63342;SDS011;49465;57.664;39.686;2023-04-24T00:57:44;13.13;;;4.00;;
63342;SDS011;49465;57.664;39.686;2023-04-24T01:00:11;7.68;;;3.80;;
63342;SDS011;49465;57.664;39.686;2023-04-24T01:02:44;12.15;;;3.80;;
63342;SDS011;49465;57.664;39.686;2023-04-24T01:05:15;9.25;;;4.05;;
63342;SDS011;49465;57.664;39.686;2023-04-24T01:07:44;10.70;;;3.90;;
63342;SDS011;49465;57.664;39.686;2023-04-24T01:10:16;10.80;;;3.70;;
63342;SDS011;49465;57.664;39.686;2023-04-24T01:12:48;7.05;;;3.72;;
63342;SDS011;49465;57.664;39.686;2023-04-24T01:15:23;12.52;;;4.00;;
63342;SDS011;49465;57.664;39.686;2023-04-24T01:18:03;12.15;;;3.88;;
63342;SDS011;49465;57.664;39.686;2023-04-24T01:20:30;7.68;;;3.70;;
63342;SDS011;49465;57.664;39.686;2023-04-24T01:23:10;7.20;;;3.80;;
63342;SDS011;49465;57.664;39.686;2023-04-24T01:25:36;7.97;;;3.88;;
63342;SDS011;49465;57.664;39.686;2023-04-24T01:28:04;7.85;;;3.35;;
63342;SDS011;49465;57.664;39.686;2023-04-24T01:30:30;7.90;;;3.60;;
63342;SDS011;49465;57.664;39.686;2023-04-24T01:33:00;5.18;;;3.05;;
63342;SDS011;49465;57.664;39.686;2023-04-24T01:35:32;6.95;;;2.92;;
63342;SDS011;49465;57.664;39.686;2023-04-24T01:37:59;6.25;;;3.25;;
63342;SDS011;49465;57.664;39.686;2023-04-24T01:40:34;9.07;;;3.47;;
63342;SDS011;49465;57.664;39.686;2023-04-24T01:43:09;7.85;;;3.50;;
63342;SDS011;49465;57.664;39.686;2023-04-24T01:45:36;7.07;;;3.47;;
63342;SDS011;49465;57.664;39.686;2023-04-24T01:48:08;8.30;;;4.30;;
63342;SDS011;49465;57.664;39.686;2023-04-24T01:50:40;6.05;;;3.88;;
63342;SDS011;49465;57.664;39.686;2023-04-24T01:53:12;10.20;;;4.05;;
63342;SDS011;49465;57.664;39.686;2023-04-24T01:55:42;10.50;;;4.50;;
63342;SDS011;49465;57.664;39.686;2023-04-24T01:58:11;8.38;;;4.55;;
63342;SDS011;49465;57.664;39.686;2023-04-24T02:00:43;10.43;;;4.38;;
63342;SDS011;49465;57.664;39.686;2023-04-24T02:03:14;7.35;;;4.30;;
63342;SDS011;49465;57.664;39.686;2023-04-24T02:05:45;6.95;;;4.28;;
63342;SDS011;49465;57.664;39.686;2023-04-24T02:08:17;9.60;;;4.82;;
63342;SDS011;49465;57.664;39.686;2023-04-24T02:10:46;14.95;;;4.70;;
63342;SDS011;49465;57.664;39.686;2023-04-24T02:13:19;7.53;;;4.97;;
63342;SDS011;49465;57.664;39.686;2023-04-24T02:15:51;8.65;;;4.70;;
63342;SDS011;49465;57.664;39.686;2023-04-24T02:18:25;12.18;;;4.65;;
63342;SDS011;49465;57.664;39.686;2023-04-24T02:20:52;9.57;;;5.05;;
63342;SDS011;49465;57.664;39.686;2023-04-24T02:23:18;9.35;;;4.63;;
63342;SDS011;49465;57.664;39.686;2023-04-24T02:25:55;8.52;;;4.30;;
63342;SDS011;49465;57.664;39.686;2023-04-24T02:28:25;9.32;;;4.50;;
63342;SDS011;49465;57.664;39.686;2023-04-24T02:30:59;8.15;;;4.70;;
63342;SDS011;49465;57.664;39.686;2023-04-24T02:33:25;9.60;;;5.10;;
63342;SDS011;49465;57.664;39.686;2023-04-24T02:35:58;11.27;;;5.35;;
63342;SDS011;49465;57.664;39.686;2023-04-24T02:38:28;11.43;;;4.97;;
63342;SDS011;49465;57.664;39.686;2023-04-24T02:40:55;15.15;;;5.82;;
63342;SDS011;49465;57.664;39.686;2023-04-24T02:43:24;12.07;;;5.57;;
63342;SDS011;49465;57.664;39.686;2023-04-24T02:45:54;14.68;;;5.15;;
63342;SDS011;49465;57.664;39.686;2023-04-24T02:48:29;11.80;;;5.65;;
63342;SDS011;49465;57.664;39.686;2023-04-24T02:50:56;8.40;;;5.13;;
63342;SDS011;49465;57.664;39.686;2023-04-24T02:53:25;11.63;;;5.82;;
63342;SDS011;49465;57.664;39.686;2023-04-24T02:55:52;10.13;;;6.03;;
63342;SDS011;49465;57.664;39.686;2023-04-24T02:58:21;9.85;;;5.80;;
63342;SDS011;49465;57.664;39.686;2023-04-24T03:00:47;10.70;;;5.35;;
63342;SDS011;49465;57.664;39.686;2023-04-24T03:03:18;13.75;;;5.28;;
63342;SDS011;49465;57.664;39.686;2023-04-24T03:05:47;11.13;;;5.20;;
63342;SDS011;49465;57.664;39.686;2023-04-24T03:08:19;10.50;;;5.38;;
63342;SDS011;49465;57.664;39.686;2023-04-24T03:10:48;13.82;;;5.20;;
63342;SDS011;49465;57.664;39.686;2023-04-24T03:13:17;11.98;;;5.20;;
63342;SDS011;49465;57.664;39.686;2023-04-24T03:15:49;11.30;;;5.28;;
63342;SDS011;49465;57.664;39.686;2023-04-24T03:18:15;9.65;;;5.45;;
63342;SDS011;49465;57.664;39.686;2023-04-24T03:20:42;11.02;;;5.53;;
63342;SDS011;49465;57.664;39.686;2023-04-24T03:23:10;9.18;;;5.55;;
63342;SDS011;49465;57.664;39.686;2023-04-24T03:25:42;27.17;;;6.28;;
63342;SDS011;49465;57.664;39.686;2023-04-24T03:28:08;16.30;;;5.97;;
63342;SDS011;49465;57.664;39.686;2023-04-24T03:30:34;17.75;;;5.75;;
63342;SDS011;49465;57.664;39.686;2023-04-24T03:33:04;14.75;;;5.18;;
63342;SDS011;49465;57.664;39.686;2023-04-24T03:35:39;15.60;;;5.43;;
63342;SDS011;49465;57.664;39.686;2023-04-24T03:38:06;14.50;;;5.32;;
63342;SDS011;49465;57.664;39.686;2023-04-24T03:40:32;16.15;;;5.25;;
63342;SDS011;49465;57.664;39.686;2023-04-24T03:42:59;11.80;;;5.70;;
63342;SDS011;49465;57.664;39.686;2023-04-24T03:45:29;10.68;;;4.93;;
63342;SDS011;49465;57.664;39.686;2023-04-24T03:47:55;13.52;;;5.28;;
63342;SDS011;49465;57.664;39.686;2023-04-24T03:50:24;11.70;;;4.90;;
63342;SDS011;49465;57.664;39.686;2023-04-24T03:52:57;7.32;;;4.38;;
63342;SDS011;49465;57.664;39.686;2023-04-24T03:55:26;7.70;;;4.22;;
63342;SDS011;49465;57.664;39.686;2023-04-24T03:57:55;5.90;;;4.32;;
63342;SDS011;49465;57.664;39.686;2023-04-24T04:00:21;10.65;;;4.50;;
63342;SDS011;49465;57.664;39.686;2023-04-24T04:02:48;8.73;;;4.45;;
63342;SDS011;49465;57.664;39.686;2023-04-24T04:05:14;10.07;;;4.55;;
63342;SDS011;49465;57.664;39.686;2023-04-24T04:07:43;7.32;;;4.20;;
63342;SDS011;49465;57.664;39.686;2023-04-24T04:10:12;8.80;;;4.32;;
63342;SDS011;49465;57.664;39.686;2023-04-24T04:12:39;7.38;;;4.25;;
63342;SDS011;49465;57.664;39.686;2023-04-24T04:15:08;8.98;;;5.32;;
63342;SDS011;49465;57.664;39.686;2023-04-24T04:17:38;11.65;;;6.28;;
63342;SDS011;49465;57.664;39.686;2023-04-24T04:20:05;9.35;;;5.25;;
63342;SDS011;49465;57.664;39.686;2023-04-24T04:22:36;15.50;;;8.30;;
63342;SDS011;49465;57.664;39.686;2023-04-24T04:25:05;14.60;;;9.85;;
63342;SDS011;49465;57.664;39.686;2023-04-24T04:27:36;12.63;;;6.70;;
63342;SDS011;49465;57.664;39.686;2023-04-24T04:30:07;9.38;;;5.53;;
63342;SDS011;49465;57.664;39.686;2023-04-24T04:32:39;11.23;;;4.63;;
63342;SDS011;49465;57.664;39.686;2023-04-24T04:35:06;10.55;;;4.57;;
63342;SDS011;49465;57.664;39.686;2023-04-24T04:37:37;9.45;;;4.30;;
63342;SDS011;49465;57.664;39.686;2023-04-24T04:40:06;10.57;;;4.60;;
63342;SDS011;49465;57.664;39.686;2023-04-24T04:42:34;9.30;;;4.32;;
63342;SDS011;49465;57.664;39.686;2023-04-24T04:45:08;9.40;;;4.25;;
63342;SDS011;49465;57.664;39.686;2023-04-24T04:47:41;11.07;;;3.97;;
63342;SDS011;49465;57.664;39.686;2023-04-24T04:50:11;10.18;;;3.80;;
63342;SDS011;49465;57.664;39.686;2023-04-24T04:52:39;8.63;;;3.70;;
63342;SDS011;49465;57.664;39.686;2023-04-24T04:55:11;8.45;;;4.15;;
63342;SDS011;49465;57.664;39.686;2023-04-24T04:57:47;9.48;;;3.97;;
63342;SDS011;49465;57.664;39.686;2023-04-24T05:00:13;11.88;;;4.07;;
63342;SDS011;49465;57.664;39.686;2023-04-24T05:02:44;10.95;;;3.90;;
63342;SDS011;49465;57.664;39.686;2023-04-24T05:05:10;8.57;;;3.65;;
63342;SDS011;49465;57.664;39.686;2023-04-24T05:07:44;4.45;;;3.28;;
63342;SDS011;49465;57.664;39.686;2023-04-24T05:10:15;10.48;;;3.42;;
63342;SDS011;49465;57.664;39.686;2023-04-24T05:12:45;5.97;;;3.30;;
63342;SDS011;49465;57.664;39.686;2023-04-24T05:15:14;4.93;;;3.03;;
63342;SDS011;49465;57.664;39.686;2023-04-24T05:17:41;5.82;;;2.85;;
63342;SDS011;49465;57.664;39.686;2023-04-24T05:20:10;7.10;;;3.40;;
63342;SDS011;49465;57.664;39.686;2023-04-24T05:22:37;7.30;;;2.97;;
63342;SDS011;49465;57.664;39.686;2023-04-24T05:25:06;6.22;;;2.90;;
63342;SDS011;49465;57.664;39.686;2023-04-24T05:27:33;3.40;;;2.60;;
63342;SDS011;49465;57.664;39.686;2023-04-24T05:30:02;4.93;;;2.50;;
63342;SDS011;49465;57.664;39.686;2023-04-24T05:32:29;5.10;;;2.20;;
63342;SDS011;49465;57.664;39.686;2023-04-24T05:35:04;6.32;;;2.85;;
63342;SDS011;49465;57.664;39.686;2023-04-24T05:37:39;6.00;;;2.90;;
63342;SDS011;49465;57.664;39.686;2023-04-24T05:40:14;5.85;;;2.92;;
63342;SDS011;49465;57.664;39.686;2023-04-24T05:42:46;4.43;;;2.20;;
63342;SDS011;49465;57.664;39.686;2023-04-24T05:45:17;7.05;;;2.30;;
63342;SDS011;49465;57.664;39.686;2023-04-24T05:47:55;9.65;;;2.53;;
63342;SDS011;49465;57.664;39.686;2023-04-24T05:50:22;4.13;;;2.10;;
63342;SDS011;49465;57.664;39.686;2023-04-24T05:52:51;5.60;;;2.20;;
63342;SDS011;49465;57.664;39.686;2023-04-24T05:55:23;3.33;;;1.90;;
63342;SDS011;49465;57.664;39.686;2023-04-24T05:57:50;5.25;;;2.20;;
63342;SDS011;49465;57.664;39.686;2023-04-24T06:00:23;2.88;;;2.00;;
63342;SDS011;49465;57.664;39.686;2023-04-24T06:02:50;5.05;;;1.75;;
63342;SDS011;49465;57.664;39.686;2023-04-24T06:05:20;4.78;;;1.95;;
63342;SDS011;49465;57.664;39.686;2023-04-24T06:07:53;7.03;;;2.30;;
63342;SDS011;49465;57.664;39.686;2023-04-24T06:10:19;9.63;;;2.60;;
63342;SDS011;49465;57.664;39.686;2023-04-24T06:12:48;4.30;;;1.98;;
63342;SDS011;49465;57.664;39.686;2023-04-24T06:15:27;5.25;;;1.90;;
63342;SDS011;49465;57.664;39.686;2023-04-24T06:17:55;2.60;;;1.55;;
63342;SDS011;49465;57.664;39.686;2023-04-24T06:20:28;4.50;;;1.67;;
63342;SDS011;49465;57.664;39.686;2023-04-24T06:22:57;2.78;;;1.70;;
63342;SDS011;49465;57.664;39.686;2023-04-24T06:25:30;44.20;;;3.50;;
63342;SDS011;49465;57.664;39.686;2023-04-24T06:27:59;4.10;;;1.77;;
63342;SDS011;49465;57.664;39.686;2023-04-24T06:30:28;7.00;;;1.95;;
63342;SDS011;49465;57.664;39.686;2023-04-24T06:33:00;4.72;;;2.17;;
63342;SDS011;49465;57.664;39.686;2023-04-24T06:35:29;5.63;;;2.03;;
63342;SDS011;49465;57.664;39.686;2023-04-24T06:37:55;5.93;;;2.10;;
63342;SDS011;49465;57.664;39.686;2023-04-24T06:40:22;8.95;;;2.40;;
63342;SDS011;49465;57.664;39.686;2023-04-24T06:42:54;3.03;;;2.08;;
63342;SDS011;49465;57.664;39.686;2023-04-24T06:45:25;7.32;;;2.72;;
63342;SDS011;49465;57.664;39.686;2023-04-24T06:47:57;3.15;;;2.20;;
63342;SDS011;49465;57.664;39.686;2023-04-24T06:50:28;2.88;;;2.25;;
63342;SDS011;49465;57.664;39.686;2023-04-24T06:52:54;4.18;;;2.70;;
63342;SDS011;49465;57.664;39.686;2023-04-24T06:55:26;5.95;;;2.92;;
63342;SDS011;49465;57.664;39.686;2023-04-24T06:57:53;3.58;;;2.17;;
63342;SDS011;49465;57.664;39.686;2023-04-24T07:00:25;9.93;;;3.33;;
63342;SDS011;49465;57.664;39.686;2023-04-24T07:02:54;6.60;;;3.40;;
63342;SDS011;49465;57.664;39.686;2023-04-24T07:05:20;4.63;;;2.53;;
63342;SDS011;49465;57.664;39.686;2023-04-24T07:07:52;17.65;;;2.80;;
63342;SDS011;49465;57.664;39.686;2023-04-24T07:10:21;9.25;;;2.30;;
63342;SDS011;49465;57.664;39.686;2023-04-24T07:12:50;8.07;;;2.42;;
63342;SDS011;49465;57.664;39.686;2023-04-24T07:15:17;10.45;;;2.30;;
63342;SDS011;49465;57.664;39.686;2023-04-24T07:17:44;3.60;;;2.35;;
63342;SDS011;49465;57.664;39.686;2023-04-24T07:20:15;12.07;;;2.30;;
63342;SDS011;49465;57.664;39.686;2023-04-24T07:22:44;7.40;;;2.17;;
63342;SDS011;49465;57.664;39.686;2023-04-24T07:25:14;2.97;;;1.63;;
63342;SDS011;49465;57.664;39.686;2023-04-24T07:27:43;2.90;;;1.90;;
63342;SDS011;49465;57.664;39.686;2023-04-24T07:30:13;5.70;;;1.70;;
63342;SDS011;49465;57.664;39.686;2023-04-24T07:32:39;7.85;;;1.90;;
63342;SDS011;49465;57.664;39.686;2023-04-24T07:35:06;6.45;;;2.35;;
63342;SDS011;49465;57.664;39.686;2023-04-24T07:37:34;6.78;;;1.90;;
63342;SDS011;49465;57.664;39.686;2023-04-24T07:40:03;10.82;;;2.40;;
63342;SDS011;49465;57.664;39.686;2023-04-24T07:42:36;18.98;;;3.00;;
63342;SDS011;49465;57.664;39.686;2023-04-24T07:45:05;6.00;;;2.28;;
63342;SDS011;49465;57.664;39.686;2023-04-24T07:47:32;5.43;;;2.95;;
63342;SDS011;49465;57.664;39.686;2023-04-24T07:50:08;3.38;;;1.90;;
63342;SDS011;49465;57.664;39.686;2023-04-24T07:52:43;3.20;;;1.95;;
63342;SDS011;49465;57.664;39.686;2023-04-24T07:55:15;3.95;;;1.90;;
63342;SDS011;49465;57.664;39.686;2023-04-24T07:57:44;25.83;;;3.00;;
63342;SDS011;49465;57.664;39.686;2023-04-24T08:00:13;17.88;;;3.88;;
63342;SDS011;49465;57.664;39.686;2023-04-24T08:02:45;195.68;;;12.65;;
63342;SDS011;49465;57.664;39.686;2023-04-24T08:05:14;14.73;;;3.20;;
63342;SDS011;49465;57.664;39.686;2023-04-24T08:07:44;12.88;;;2.92;;
63342;SDS011;49465;57.664;39.686;2023-04-24T08:10:22;8.20;;;2.38;;
63342;SDS011;49465;57.664;39.686;2023-04-24T08:12:51;5.95;;;2.30;;
63342;SDS011;49465;57.664;39.686;2023-04-24T08:15:18;6.25;;;2.40;;
63342;SDS011;49465;57.664;39.686;2023-04-24T08:17:44;23.55;;;8.95;;
63342;SDS011;49465;57.664;39.686;2023-04-24T08:20:16;24.20;;;9.52;;
63342;SDS011;49465;57.664;39.686;2023-04-24T08:22:42;14.95;;;5.47;;
63342;SDS011;49465;57.664;39.686;2023-04-24T08:25:15;10.85;;;3.30;;
63342;SDS011;49465;57.664;39.686;2023-04-24T08:27:51;7.40;;;2.80;;
63342;SDS011;49465;57.664;39.686;2023-04-24T08:30:20;10.38;;;4.00;;
63342;SDS011;49465;57.664;39.686;2023-04-24T08:32:47;5.75;;;3.00;;
63342;SDS011;49465;57.664;39.686;2023-04-24T08:35:14;3.95;;;1.90;;
63342;SDS011;49465;57.664;39.686;2023-04-24T08:37:46;5.78;;;1.90;;
63342;SDS011;49465;57.664;39.686;2023-04-24T08:40:16;3.28;;;1.95;;
63342;SDS011;49465;57.664;39.686;2023-04-24T08:42:47;4.05;;;2.00;;
63342;SDS011;49465;57.664;39.686;2023-04-24T08:45:15;4.00;;;2.20;;
63342;SDS011;49465;57.664;39.686;2023-04-24T08:47:44;6.43;;;2.30;;
63342;SDS011;49465;57.664;39.686;2023-04-24T08:50:21;4.38;;;2.33;;
63342;SDS011;49465;57.664;39.686;2023-04-24T08:52:57;5.57;;;3.70;;
63342;SDS011;49465;57.664;39.686;2023-04-24T08:55:29;16.98;;;4.18;;
63342;SDS011;49465;57.664;39.686;2023-04-24T08:58:05;8.48;;;3.70;;
63342;SDS011;49465;57.664;39.686;2023-04-24T09:00:42;4.32;;;2.80;;
63342;SDS011;49465;57.664;39.686;2023-04-24T09:03:20;5.80;;;2.35;;
63342;SDS011;49465;57.664;39.686;2023-04-24T09:05:47;4.67;;;2.40;;
63342;SDS011;49465;57.664;39.686;2023-04-24T09:08:18;4.05;;;2.65;;
63342;SDS011;49465;57.664;39.686;2023-04-24T09:10:52;4.43;;;2.33;;
63342;SDS011;49465;57.664;39.686;2023-04-24T09:13:23;4.80;;;2.25;;
63342;SDS011;49465;57.664;39.686;2023-04-24T09:15:53;3.85;;;2.10;;
63342;SDS011;49465;57.664;39.686;2023-04-24T09:18:22;3.38;;;2.17;;
63342;SDS011;49465;57.664;39.686;2023-04-24T09:20:59;3.10;;;2.17;;
63342;SDS011;49465;57.664;39.686;2023-04-24T09:23:30;3.65;;;2.17;;
63342;SDS011;49465;57.664;39.686;2023-04-24T09:25:57;3.97;;;2.50;;
63342;SDS011;49465;57.664;39.686;2023-04-24T09:28:31;3.13;;;2.10;;
63342;SDS011;49465;57.664;39.686;2023-04-24T09:31:05;3.53;;;2.28;;
63342;SDS011;49465;57.664;39.686;2023-04-24T09:33:33;3.60;;;2.13;;
63342;SDS011;49465;57.664;39.686;2023-04-24T09:36:03;7.13;;;3.58;;
63342;SDS011;49465;57.664;39.686;2023-04-24T09:38:35;5.15;;;2.95;;
63342;SDS011;49465;57.664;39.686;2023-04-24T09:41:12;7.70;;;3.58;;
63342;SDS011;49465;57.664;39.686;2023-04-24T09:43:47;6.10;;;3.30;;
63342;SDS011;49465;57.664;39.686;2023-04-24T09:46:19;4.93;;;2.63;;
63342;SDS011;49465;57.664;39.686;2023-04-24T09:49:02;3.40;;;2.80;;
63342;SDS011;49465;57.664;39.686;2023-04-24T09:51:38;5.43;;;3.30;;
63342;SDS011;49465;57.664;39.686;2023-04-24T09:54:21;6.07;;;2.75;;
63342;SDS011;49465;57.664;39.686;2023-04-24T09:56:53;4.00;;;2.22;;
63342;SDS011;49465;57.664;39.686;2023-04-24T09:59:32;4.90;;;2.75;;
63342;SDS011;49465;57.664;39.686;2023-04-24T10:02:21;4.22;;;2.63;;
63342;SDS011;49465;57.664;39.686;2023-04-24T10:04:56;5.35;;;2.50;;
63342;SDS011;49465;57.664;39.686;2023-04-24T10:10:17;4.20;;;2.83;;
63342;SDS011;49465;57.664;39.686;2023-04-24T10:12:50;4.68;;;2.60;;
63342;SDS011;49465;57.664;39.686;2023-04-24T10:15:20;9.65;;;3.70;;
63342;SDS011;49465;57.664;39.686;2023-04-24T10:17:58;7.95;;;3.70;;
63342;SDS011;49465;57.664;39.686;2023-04-24T10:20:37;7.00;;;3.10;;
63342;SDS011;49465;57.664;39.686;2023-04-24T10:23:07;7.82;;;3.22;;
63342;SDS011;49465;57.664;39.686;2023-04-24T10:28:06;8.68;;;3.35;;
63342;SDS011;49465;57.664;39.686;2023-04-24T10:30:37;5.85;;;3.20;;
63342;SDS011;49465;57.664;39.686;2023-04-24T10:33:11;5.93;;;3.35;;
63342;SDS011;49465;57.664;39.686;2023-04-24T10:35:39;8.95;;;3.30;;
63342;SDS011;49465;57.664;39.686;2023-04-24T10:38:14;6.45;;;3.10;;
63342;SDS011;49465;57.664;39.686;2023-04-24T10:41:14;5.30;;;3.00;;
63342;SDS011;49465;57.664;39.686;2023-04-24T10:43:47;6.82;;;2.78;;
63342;SDS011;49465;57.664;39.686;2023-04-24T10:46:54;4.97;;;3.15;;
63342;SDS011;49465;57.664;39.686;2023-04-24T10:49:30;6.32;;;3.38;;
63342;SDS011;49465;57.664;39.686;2023-04-24T10:52:00;5.45;;;2.97;;
63342;SDS011;49465;57.664;39.686;2023-04-24T10:59:45;5.70;;;3.13;;
63342;SDS011;49465;57.664;39.686;2023-04-24T11:02:15;3.58;;;2.67;;
63342;SDS011;49465;57.664;39.686;2023-04-24T11:04:45;3.42;;;3.08;;
63342;SDS011;49465;57.664;39.686;2023-04-24T11:07:21;10.07;;;3.08;;
63342;SDS011;49465;57.664;39.686;2023-04-24T11:09:57;6.85;;;3.63;;
63342;SDS011;49465;57.664;39.686;2023-04-24T11:12:29;8.82;;;3.40;;
63342;SDS011;49465;57.664;39.686;2023-04-24T11:15:00;12.85;;;4.00;;
63342;SDS011;49465;57.664;39.686;2023-04-24T11:17:34;9.15;;;3.60;;
63342;SDS011;49465;57.664;39.686;2023-04-24T11:20:16;8.25;;;3.72;;
63342;SDS011;49465;57.664;39.686;2023-04-24T11:22:45;6.65;;;3.40;;
63342;SDS011;49465;57.664;39.686;2023-04-24T11:25:17;5.80;;;3.60;;
63342;SDS011;49465;57.664;39.686;2023-04-24T11:27:54;5.75;;;3.60;;
63342;SDS011;49465;57.664;39.686;2023-04-24T11:30:33;14.43;;;3.90;;
63342;SDS011;49465;57.664;39.686;2023-04-24T11:33:06;7.72;;;3.35;;
63342;SDS011;49465;57.664;39.686;2023-04-24T11:35:43;5.00;;;3.40;;
63342;SDS011;49465;57.664;39.686;2023-04-24T11:38:13;4.38;;;3.17;;
63342;SDS011;49465;57.664;39.686;2023-04-24T11:40:53;8.05;;;3.50;;
63342;SDS011;49465;57.664;39.686;2023-04-24T11:43:25;5.00;;;3.42;;
63342;SDS011;49465;57.664;39.686;2023-04-24T11:45:55;13.15;;;4.15;;
63342;SDS011;49465;57.664;39.686;2023-04-24T11:48:44;5.80;;;3.60;;
63342;SDS011;49465;57.664;39.686;2023-04-24T11:51:20;5.55;;;3.40;;
63342;SDS011;49465;57.664;39.686;2023-04-24T11:53:59;6.40;;;3.65;;
63342;SDS011;49465;57.664;39.686;2023-04-24T11:56:26;7.45;;;3.63;;
63342;SDS011;49465;57.664;39.686;2023-04-24T11:58:55;7.13;;;3.58;;
63342;SDS011;49465;57.664;39.686;2023-04-24T12:01:22;6.07;;;3.95;;
63342;SDS011;49465;57.664;39.686;2023-04-24T12:03:49;4.57;;;3.97;;
63342;SDS011;49465;57.664;39.686;2023-04-24T12:08:52;5.20;;;4.20;;
63342;SDS011;49465;57.664;39.686;2023-04-24T12:11:27;5.05;;;3.80;;
63342;SDS011;49465;57.664;39.686;2023-04-24T12:13:54;9.35;;;4.13;;
63342;SDS011;49465;57.664;39.686;2023-04-24T12:16:23;5.80;;;4.03;;
63342;SDS011;49465;57.664;39.686;2023-04-24T12:18:52;6.80;;;3.90;;
63342;SDS011;49465;57.664;39.686;2023-04-24T12:21:19;6.60;;;3.63;;
63342;SDS011;49465;57.664;39.686;2023-04-24T12:23:50;6.18;;;3.70;;
63342;SDS011;49465;57.664;39.686;2023-04-24T12:26:22;7.53;;;4.22;;
63342;SDS011;49465;57.664;39.686;2023-04-24T12:28:51;7.63;;;3.55;;
63342;SDS011;49465;57.664;39.686;2023-04-24T12:31:23;9.85;;;3.95;;
63342;SDS011;49465;57.664;39.686;2023-04-24T12:33:54;12.27;;;4.25;;
63342;SDS011;49465;57.664;39.686;2023-04-24T12:36:24;6.65;;;3.92;;
63342;SDS011;49465;57.664;39.686;2023-04-24T12:38:53;12.90;;;4.30;;
63342;SDS011;49465;57.664;39.686;2023-04-24T12:41:22;7.28;;;3.65;;
63342;SDS011;49465;57.664;39.686;2023-04-24T12:43:52;5.68;;;3.45;;
63342;SDS011;49465;57.664;39.686;2023-04-24T12:46:20;5.47;;;3.60;;
63342;SDS011;49465;57.664;39.686;2023-04-24T12:48:50;6.40;;;3.75;;
63342;SDS011;49465;57.664;39.686;2023-04-24T12:51:19;4.78;;;3.58;;
63342;SDS011;49465;57.664;39.686;2023-04-24T12:53:48;4.32;;;3.60;;
63342;SDS011;49465;57.664;39.686;2023-04-24T12:56:14;7.38;;;4.30;;
63342;SDS011;49465;57.664;39.686;2023-04-24T12:58:46;8.95;;;5.95;;
63342;SDS011;49465;57.664;39.686;2023-04-24T13:01:12;11.52;;;5.13;;
63342;SDS011;49465;57.664;39.686;2023-04-24T13:03:42;7.00;;;4.60;;
63342;SDS011;49465;57.664;39.686;2023-04-24T13:06:17;7.80;;;3.70;;
63342;SDS011;49465;57.664;39.686;2023-04-24T13:08:43;7.93;;;3.60;;
63342;SDS011;49465;57.664;39.686;2023-04-24T13:11:10;5.28;;;3.72;;
63342;SDS011;49465;57.664;39.686;2023-04-24T13:13:38;4.80;;;3.70;;
63342;SDS011;49465;57.664;39.686;2023-04-24T13:16:08;6.55;;;3.92;;
63342;SDS011;49465;57.664;39.686;2023-04-24T13:18:43;10.73;;;3.95;;
63342;SDS011;49465;57.664;39.686;2023-04-24T13:21:09;7.97;;;4.10;;
63342;SDS011;49465;57.664;39.686;2023-04-24T13:23:35;5.28;;;4.00;;
63342;SDS011;49465;57.664;39.686;2023-04-24T13:26:02;4.28;;;3.50;;
63342;SDS011;49465;57.664;39.686;2023-04-24T13:28:29;6.05;;;3.47;;
63342;SDS011;49465;57.664;39.686;2023-04-24T13:30:58;4.68;;;3.40;;
63342;SDS011;49465;57.664;39.686;2023-04-24T13:33:27;5.88;;;3.30;;
63342;SDS011;49465;57.664;39.686;2023-04-24T13:35:53;6.43;;;3.53;;
63342;SDS011;49465;57.664;39.686;2023-04-24T13:38:20;7.20;;;3.60;;
63342;SDS011;49465;57.664;39.686;2023-04-24T13:40:49;7.47;;;3.72;;
63342;SDS011;49465;57.664;39.686;2023-04-24T13:43:16;5.70;;;3.60;;
63342;SDS011;49465;57.664;39.686;2023-04-24T13:45:42;5.60;;;3.63;;
63342;SDS011;49465;57.664;39.686;2023-04-24T13:48:09;5.82;;;3.33;;
63342;SDS011;49465;57.664;39.686;2023-04-24T13:50:35;10.90;;;3.60;;
63342;SDS011;49465;57.664;39.686;2023-04-24T13:53:02;7.82;;;4.25;;
63342;SDS011;49465;57.664;39.686;2023-04-24T13:55:29;8.73;;;4.75;;
63342;SDS011;49465;57.664;39.686;2023-04-24T13:57:58;6.38;;;4.10;;
63342;SDS011;49465;57.664;39.686;2023-04-24T14:00:26;6.72;;;3.70;;
63342;SDS011;49465;57.664;39.686;2023-04-24T14:02:53;7.57;;;3.83;;
63342;SDS011;49465;57.664;39.686;2023-04-24T14:05:19;8.95;;;3.40;;
63342;SDS011;49465;57.664;39.686;2023-04-24T14:07:47;8.88;;;3.60;;
63342;SDS011;49465;57.664;39.686;2023-04-24T14:10:16;7.85;;;3.90;;
63342;SDS011;49465;57.664;39.686;2023-04-24T14:12:45;6.38;;;3.85;;
63342;SDS011;49465;57.664;39.686;2023-04-24T14:15:14;6.45;;;4.03;;
63342;SDS011;49465;57.664;39.686;2023-04-24T14:17:43;7.20;;;3.50;;
63342;SDS011;49465;57.664;39.686;2023-04-24T14:20:10;12.13;;;4.15;;
63342;SDS011;49465;57.664;39.686;2023-04-24T14:22:40;5.15;;;3.45;;
63342;SDS011;49465;57.664;39.686;2023-04-24T14:25:17;4.03;;;3.30;;
63342;SDS011;49465;57.664;39.686;2023-04-24T14:27:47;8.40;;;3.53;;
63342;SDS011;49465;57.664;39.686;2023-04-24T14:30:14;19.50;;;4.20;;
63342;SDS011;49465;57.664;39.686;2023-04-24T14:32:48;4.20;;;3.60;;
63342;SDS011;49465;57.664;39.686;2023-04-24T14:35:17;5.97;;;3.22;;
63342;SDS011;49465;57.664;39.686;2023-04-24T14:37:44;4.93;;;3.63;;
63342;SDS011;49465;57.664;39.686;2023-04-24T14:40:22;4.75;;;3.40;;
63342;SDS011;49465;57.664;39.686;2023-04-24T14:42:49;7.28;;;3.50;;
63342;SDS011;49465;57.664;39.686;2023-04-24T14:45:25;6.70;;;3.83;;
63342;SDS011;49465;57.664;39.686;2023-04-24T14:47:54;5.38;;;3.58;;
63342;SDS011;49465;57.664;39.686;2023-04-24T14:50:21;10.20;;;3.47;;
63342;SDS011;49465;57.664;39.686;2023-04-24T14:52:48;7.72;;;3.60;;
63342;SDS011;49465;57.664;39.686;2023-04-24T14:55:18;11.70;;;3.58;;
63342;SDS011;49465;57.664;39.686;2023-04-24T14:57:47;5.82;;;3.60;;
63342;SDS011;49465;57.664;39.686;2023-04-24T15:00:13;5.18;;;3.45;;
63342;SDS011;49465;57.664;39.686;2023-04-24T15:02:44;7.05;;;3.67;;
63342;SDS011;49465;57.664;39.686;2023-04-24T15:05:14;6.18;;;3.40;;